createdAt,value
2022-08-14T00:07:18.324Z,0.14
2022-08-14T00:22:44.271Z,1.25
2022-08-14T00:37:18.416Z,0.73
2022-08-14T00:52:18.675Z,1.21
2022-08-14T01:07:18.385Z,1.45
2022-08-14T01:22:19.225Z,1.31
2022-08-14T01:37:18.513Z,0.91
2022-08-14T01:52:33.716Z,1.39
2022-08-14T02:07:34.525Z,0.44
2022-08-14T02:22:29.127Z,2.07
2022-08-14T02:37:18.603Z,2.73
2022-08-14T02:52:55.623Z,2.00
2022-08-14T03:07:18.691Z,2.03
2022-08-14T03:22:18.778Z,1.31
2022-08-14T03:37:38.519Z,0.88
2022-08-14T03:52:39.180Z,1.17
2022-08-14T04:07:18.859Z,2.03
2022-08-14T04:22:18.854Z,0.57
2022-08-14T04:37:24.772Z,0.18
2022-08-14T04:52:23.242Z,0.05
2022-08-14T05:07:19.044Z,0.29
2022-08-14T05:22:19.386Z,0.36
2022-08-14T05:37:18.996Z,0.60
2022-08-14T05:52:38.710Z,1.42
2022-08-14T06:07:19.091Z,2.01
2022-08-14T06:22:19.123Z,2.40
2022-08-14T06:37:19.245Z,2.41
2022-08-14T06:52:19.171Z,2.28
2022-08-14T07:07:19.216Z,2.52
2022-08-14T07:22:22.760Z,2.46
2022-08-14T07:37:19.557Z,2.58
2022-08-14T07:52:22.147Z,2.91
2022-08-14T08:07:19.490Z,2.76
2022-08-14T08:22:19.632Z,3.13
2022-08-14T08:37:19.396Z,3.10
2022-08-14T08:52:25.222Z,2.82
2022-08-14T09:07:19.726Z,3.17
2022-08-14T09:22:47.654Z,2.58
2022-08-14T09:37:19.750Z,2.35
2022-08-14T09:52:33.297Z,2.77
2022-08-14T10:07:19.897Z,2.70
2022-08-14T10:23:21.819Z,2.54
2022-08-14T10:37:19.906Z,2.58
2022-08-14T10:52:22.077Z,2.77
2022-08-14T11:07:21.482Z,3.12
2022-08-14T11:23:03.185Z,3.14
2022-08-14T11:37:24.839Z,2.28
2022-08-14T11:52:21.633Z,2.52
2022-08-14T12:07:19.870Z,2.16
2022-08-14T12:22:30.088Z,3.36
2022-08-14T12:37:20.058Z,2.59
2022-08-14T12:52:20.259Z,1.52
2022-08-14T13:07:20.083Z,2.63
2022-08-14T13:22:32.283Z,2.33
2022-08-14T13:37:20.239Z,2.70
2022-08-14T13:52:51.898Z,1.93
2022-08-14T14:07:20.088Z,3.28
2022-08-14T14:22:35.827Z,3.02
2022-08-14T14:37:20.317Z,4.11
2022-08-14T14:52:26.947Z,3.11
2022-08-14T15:07:20.155Z,1.88
2022-08-14T15:22:20.404Z,1.90
2022-08-14T15:37:20.302Z,1.94
2022-08-14T15:52:33.129Z,2.00
2022-08-14T16:07:22.026Z,2.34
2022-08-14T16:22:59.439Z,0.95
2022-08-14T16:37:20.436Z,1.28
2022-08-14T16:52:25.035Z,0.60
2022-08-14T17:07:20.374Z,0.68
2022-08-14T17:22:20.349Z,0.90
2022-08-14T17:37:22.706Z,0.84
2022-08-14T17:52:34.873Z,1.70
2022-08-14T18:07:59.358Z,2.71
2022-08-14T18:22:30.884Z,5.39
2022-08-14T18:37:20.337Z,3.80
2022-08-14T18:52:20.353Z,1.05
2022-08-14T19:07:20.297Z,0.51
2022-08-14T19:22:29.858Z,0.00
2022-08-14T19:37:22.010Z,0.03
2022-08-14T19:52:21.083Z,0.20
2022-08-14T20:07:20.444Z,0.21
2022-08-14T20:22:37.278Z,0.63
2022-08-14T20:37:22.707Z,0.56
2022-08-14T20:52:21.126Z,0.55
2022-08-14T21:07:25.361Z,0.19
2022-08-14T21:22:20.466Z,0.06
2022-08-14T21:37:20.705Z,0.53
2022-08-14T21:52:49.118Z,0.76
2022-08-14T22:07:20.425Z,0.56
2022-08-14T22:22:20.427Z,0.45
2022-08-14T22:37:20.399Z,1.11
2022-08-14T22:52:33.356Z,1.04
2022-08-14T23:07:22.677Z,0.92
2022-08-14T23:22:20.588Z,0.53
2022-08-14T23:37:27.096Z,0.44
2022-08-14T23:52:55.922Z,0.00
